createdAt,value
2022-10-18T00:01:07.870Z,52.08
2022-10-18T00:03:39.460Z,47.28
2022-10-18T00:06:08.553Z,41.63
2022-10-18T00:08:37.374Z,40.25
2022-10-18T00:11:05.941Z,39.75
2022-10-18T00:13:33.699Z,37.95
2022-10-18T00:16:09.991Z,34.42
2022-10-18T00:18:39.649Z,39.45
2022-10-18T00:21:10.787Z,39.95
2022-10-18T00:23:39.204Z,38.45
2022-10-18T00:26:08.278Z,32.25
2022-10-18T00:28:39.367Z,36.72
2022-10-18T00:31:17.827Z,37.88
2022-10-18T00:33:49.489Z,40.17
2022-10-18T00:36:17.789Z,37.20
2022-10-18T00:38:46.317Z,42.13
2022-10-18T00:41:16.367Z,36.97
2022-10-18T00:43:55.852Z,37.75
2022-10-18T00:46:24.592Z,36.75
2022-10-18T00:48:56.122Z,40.47
2022-10-18T00:51:27.327Z,38.17
2022-10-18T00:53:55.425Z,49.67
2022-10-18T00:56:23.219Z,45.08
2022-10-18T00:58:51.959Z,47.67
2022-10-18T01:01:24.475Z,46.00
2022-10-18T01:03:57.165Z,48.22
2022-10-18T01:06:25.706Z,45.42
2022-10-18T01:09:05.503Z,57.42
2022-10-18T01:12:14.480Z,48.92
2022-10-18T01:14:50.423Z,46.42
2022-10-18T01:17:23.150Z,49.85
2022-10-18T01:20:19.275Z,45.80
2022-10-18T01:22:52.830Z,43.30
2022-10-18T01:25:35.996Z,41.20
2022-10-18T01:28:15.909Z,52.80
2022-10-18T01:31:01.165Z,51.22
2022-10-18T01:33:37.872Z,46.45
2022-10-18T01:36:12.480Z,45.05
2022-10-18T01:38:42.935Z,46.33
2022-10-18T01:41:15.847Z,46.97
2022-10-18T01:43:48.286Z,48.85
2022-10-18T01:46:22.055Z,41.28
2022-10-18T01:48:51.258Z,46.33
2022-10-18T01:51:20.371Z,38.72
2022-10-18T01:53:47.990Z,46.63
2022-10-18T01:56:25.458Z,40.42
2022-10-18T01:59:04.901Z,39.08
2022-10-18T02:01:43.857Z,37.45
2022-10-18T02:04:22.581Z,34.80
2022-10-18T02:06:57.648Z,45.97
2022-10-18T02:09:34.522Z,44.95
2022-10-18T02:12:03.664Z,38.90
2022-10-18T02:14:33.130Z,36.83
2022-10-18T02:17:08.417Z,37.80
2022-10-18T02:19:39.314Z,38.10
2022-10-18T02:22:09.933Z,38.27
2022-10-18T02:24:41.115Z,38.70
2022-10-18T02:27:09.511Z,36.70
2022-10-18T02:29:37.859Z,39.40
2022-10-18T02:32:14.939Z,40.30
2022-10-18T02:34:46.805Z,35.85
2022-10-18T02:37:17.208Z,38.70
2022-10-18T02:39:48.369Z,35.80
2022-10-18T02:42:16.584Z,39.58
2022-10-18T02:44:44.142Z,42.65
2022-10-18T02:47:14.037Z,40.33
2022-10-18T02:49:41.608Z,38.47
2022-10-18T02:52:09.192Z,41.25
2022-10-18T02:54:37.396Z,39.20
2022-10-18T02:57:04.979Z,35.95
2022-10-18T02:59:33.294Z,35.95
2022-10-18T03:02:01.062Z,41.92
2022-10-18T03:04:30.874Z,40.28
2022-10-18T03:06:58.442Z,44.90
2022-10-18T03:09:26.297Z,40.50
2022-10-18T03:11:54.266Z,38.55
2022-10-18T03:14:25.566Z,39.65
2022-10-18T03:16:53.373Z,33.80
2022-10-18T03:19:25.250Z,35.50
2022-10-18T03:21:54.772Z,38.20
2022-10-18T03:24:22.526Z,45.45
2022-10-18T03:26:50.884Z,44.38
2022-10-18T03:29:18.605Z,40.70
2022-10-18T03:31:46.154Z,41.33
2022-10-18T03:34:13.799Z,38.08
2022-10-18T03:36:41.852Z,36.83
2022-10-18T03:39:12.223Z,36.30
2022-10-18T03:41:39.820Z,41.67
2022-10-18T03:44:07.798Z,41.70
2022-10-18T03:46:35.375Z,41.63
2022-10-18T03:49:03.709Z,35.72
2022-10-18T03:51:31.495Z,44.78
2022-10-18T03:54:15.203Z,38.85
2022-10-18T03:56:43.116Z,43.67
2022-10-18T03:59:10.679Z,38.35
2022-10-18T04:01:39.065Z,43.70
2022-10-18T04:04:06.755Z,35.70
2022-10-18T04:06:35.976Z,43.78
2022-10-18T04:09:07.850Z,49.40
2022-10-18T04:11:39.551Z,56.05
2022-10-18T04:14:07.395Z,58.53
2022-10-18T04:19:10.052Z,54.50
2022-10-18T04:21:37.585Z,45.90
2022-10-18T04:24:05.921Z,46.40
2022-10-18T04:26:33.784Z,52.00
2022-10-18T04:29:02.937Z,51.85
2022-10-18T04:31:30.961Z,46.05
2022-10-18T04:33:58.836Z,42.00
2022-10-18T04:36:26.735Z,39.22
2022-10-18T04:38:54.282Z,39.40
2022-10-18T04:41:22.436Z,45.88
2022-10-18T04:43:50.082Z,38.50
2022-10-18T04:46:19.290Z,42.50
2022-10-18T04:48:50.035Z,39.53
2022-10-18T04:51:18.174Z,42.75
2022-10-18T04:53:45.826Z,47.20
2022-10-18T04:56:13.531Z,58.85
2022-10-18T04:58:41.263Z,42.70
2022-10-18T05:01:09.202Z,42.95
2022-10-18T05:03:38.582Z,53.53
2022-10-18T05:06:06.423Z,61.78
2022-10-18T05:08:39.051Z,53.70
2022-10-18T05:11:06.710Z,42.80
2022-10-18T05:13:34.417Z,46.55
2022-10-18T05:16:02.015Z,49.70
2022-10-18T05:18:31.899Z,48.10
2022-10-18T05:21:01.326Z,50.40
2022-10-18T05:23:29.048Z,52.85
2022-10-18T05:26:01.770Z,56.83
2022-10-18T05:28:45.152Z,54.08
2022-10-18T05:31:13.202Z,56.25
2022-10-18T05:33:41.296Z,55.55
2022-10-18T05:36:10.925Z,58.03
2022-10-18T05:38:40.400Z,66.15
2022-10-18T05:41:08.433Z,57.75
2022-10-18T05:43:36.386Z,58.08
2022-10-18T05:46:04.281Z,63.78
2022-10-18T05:48:35.315Z,60.53
2022-10-18T05:51:02.927Z,49.10
2022-10-18T05:53:36.719Z,104.15
2022-10-18T05:56:06.571Z,135.35
2022-10-18T05:58:41.013Z,92.85
2022-10-18T06:01:11.191Z,95.82
2022-10-18T06:03:39.959Z,91.32
2022-10-18T06:06:10.766Z,76.78
2022-10-18T06:08:41.291Z,72.15
2022-10-18T06:11:10.487Z,79.53
2022-10-18T06:13:40.801Z,85.28
2022-10-18T06:16:09.378Z,83.07
2022-10-18T06:18:37.090Z,78.85
2022-10-18T06:21:05.187Z,89.40
2022-10-18T06:23:33.790Z,83.75
2022-10-18T06:26:07.229Z,105.10
2022-10-18T06:28:36.494Z,81.40
2022-10-18T06:31:05.678Z,100.90
2022-10-18T06:33:35.844Z,99.47
2022-10-18T06:36:06.040Z,102.70
2022-10-18T06:38:34.338Z,73.90
2022-10-18T06:41:02.277Z,79.28
2022-10-18T06:43:31.639Z,71.75
2022-10-18T06:46:01.088Z,63.45
2022-10-18T06:48:29.061Z,60.08
2022-10-18T06:50:58.900Z,64.57
2022-10-18T06:53:27.718Z,74.35
2022-10-18T06:55:59.936Z,57.00
2022-10-18T06:58:29.251Z,62.10
2022-10-18T07:00:58.658Z,62.42
2022-10-18T07:03:26.461Z,57.13
2022-10-18T07:05:54.057Z,51.50
2022-10-18T07:08:21.813Z,48.17
2022-10-18T07:10:53.160Z,45.15
2022-10-18T07:13:32.039Z,40.42
2022-10-18T07:16:06.615Z,37.35
2022-10-18T07:18:34.351Z,31.98
2022-10-18T07:21:03.208Z,34.20
2022-10-18T07:23:33.208Z,29.35
2022-10-18T07:26:00.946Z,31.30
2022-10-18T07:28:28.606Z,31.98
2022-10-18T07:30:56.674Z,29.65
2022-10-18T07:33:29.166Z,29.27
2022-10-18T07:36:00.590Z,28.33
2022-10-18T07:38:28.196Z,26.70
2022-10-18T07:40:56.838Z,30.77
2022-10-18T07:43:26.203Z,24.23
2022-10-18T07:45:54.616Z,22.92
2022-10-18T07:48:22.808Z,21.30
2022-10-18T07:50:52.237Z,18.02
2022-10-18T07:53:19.749Z,23.48
2022-10-18T07:55:47.191Z,23.02
2022-10-18T07:58:14.893Z,21.48
2022-10-18T08:00:42.499Z,21.65
2022-10-18T08:03:09.938Z,49.17
2022-10-18T08:05:38.025Z,18.73
2022-10-18T08:08:08.112Z,16.35
2022-10-18T08:10:36.003Z,19.92
2022-10-18T08:13:04.481Z,24.13
2022-10-18T08:15:32.277Z,17.77
2022-10-18T08:17:59.804Z,18.65
2022-10-18T08:20:30.983Z,18.23
2022-10-18T08:25:30.913Z,19.23
2022-10-18T08:27:58.509Z,19.45
2022-10-18T08:30:25.958Z,14.60
2022-10-18T08:32:53.867Z,16.52
2022-10-18T08:35:21.371Z,20.30
2022-10-18T08:37:50.093Z,16.48
2022-10-18T08:40:18.180Z,15.00
2022-10-18T08:43:00.907Z,16.75
2022-10-18T08:45:42.014Z,15.65
2022-10-18T08:50:45.927Z,22.27
2022-10-18T08:53:19.508Z,17.88
2022-10-18T08:55:50.353Z,17.02
2022-10-18T08:58:24.758Z,15.52
2022-10-18T09:01:03.255Z,14.15
2022-10-18T09:03:47.098Z,11.93
2022-10-18T09:06:23.672Z,13.50
2022-10-18T09:09:08.535Z,14.07
2022-10-18T09:11:51.657Z,11.15
2022-10-18T09:14:51.330Z,12.32
2022-10-18T09:17:28.406Z,13.63
2022-10-18T09:20:10.679Z,11.18
2022-10-18T09:22:47.947Z,11.38
2022-10-18T09:25:19.003Z,10.15
2022-10-18T09:27:52.294Z,12.23
2022-10-18T09:30:36.490Z,15.45
2022-10-18T09:33:20.094Z,14.45
2022-10-18T09:35:52.603Z,18.25
2022-10-18T09:41:02.369Z,11.15
2022-10-18T09:43:42.698Z,13.10
2022-10-18T09:46:13.021Z,11.27
2022-10-18T09:48:47.414Z,14.52
2022-10-18T09:51:18.292Z,11.40
2022-10-18T09:54:03.423Z,14.95
2022-10-18T09:56:39.447Z,12.63
2022-10-18T09:59:23.584Z,12.38
2022-10-18T10:01:52.589Z,10.43
2022-10-18T10:04:20.061Z,12.52
2022-10-18T10:06:53.099Z,12.80
2022-10-18T10:09:26.529Z,15.75
2022-10-18T10:11:54.177Z,10.70
2022-10-18T10:14:25.103Z,12.80
2022-10-18T10:16:56.013Z,15.80
2022-10-18T10:19:28.114Z,13.68
2022-10-18T10:22:00.206Z,12.70
2022-10-18T10:24:41.934Z,13.05
2022-10-18T10:27:18.098Z,14.35
2022-10-18T10:29:54.917Z,11.15
2022-10-18T10:32:29.374Z,12.98
2022-10-18T10:35:00.036Z,13.15
2022-10-18T10:37:34.236Z,12.88
2022-10-18T10:40:27.847Z,10.27
2022-10-18T10:43:18.170Z,12.98
2022-10-18T10:46:00.705Z,14.15
2022-10-18T10:48:33.500Z,11.52
2022-10-18T10:51:04.876Z,12.77
2022-10-18T10:53:43.199Z,14.25
2022-10-18T10:56:26.628Z,16.20
2022-10-18T10:58:58.788Z,15.40
2022-10-18T11:01:31.868Z,10.35
2022-10-18T11:04:02.766Z,14.43
2022-10-18T11:09:06.409Z,11.07
2022-10-18T11:11:43.232Z,12.48
2022-10-18T11:14:26.263Z,11.70
2022-10-18T11:17:07.731Z,14.55
2022-10-18T11:19:46.100Z,12.80
2022-10-18T11:22:20.803Z,14.93
2022-10-18T11:24:48.547Z,11.77
2022-10-18T11:27:23.608Z,14.70
2022-10-18T11:30:32.996Z,16.90
2022-10-18T11:33:11.730Z,9.60
2022-10-18T11:35:50.214Z,13.70
2022-10-18T11:38:31.383Z,12.63
2022-10-18T11:41:22.300Z,11.82
2022-10-18T11:44:02.999Z,11.00
2022-10-18T11:46:56.845Z,11.90
2022-10-18T11:49:42.278Z,13.95
2022-10-18T11:52:18.091Z,11.63
2022-10-18T11:54:59.166Z,11.73
2022-10-18T11:57:46.651Z,12.38
2022-10-18T12:00:28.803Z,11.20
2022-10-18T12:03:08.912Z,12.85
2022-10-18T12:05:38.202Z,11.57
2022-10-18T12:08:11.686Z,14.20
2022-10-18T12:11:03.470Z,10.63
2022-10-18T12:13:39.145Z,14.15
2022-10-18T12:16:09.451Z,12.43
2022-10-18T12:18:48.007Z,13.10
2022-10-18T12:21:24.536Z,14.70
2022-10-18T12:23:57.695Z,14.18
2022-10-18T12:26:27.370Z,12.38
2022-10-18T12:29:08.002Z,13.23
2022-10-18T12:31:42.363Z,10.23
2022-10-18T12:34:25.547Z,11.52
2022-10-18T12:37:12.378Z,12.98
2022-10-18T12:40:05.631Z,14.00
2022-10-18T12:42:40.700Z,15.45
2022-10-18T12:45:22.765Z,14.65
2022-10-18T12:47:51.413Z,14.07
2022-10-18T12:50:29.740Z,12.57
2022-10-18T12:53:25.064Z,12.45
2022-10-18T12:55:56.344Z,15.75
2022-10-18T12:58:30.081Z,10.70
2022-10-18T13:01:05.105Z,8.63
2022-10-18T13:03:55.343Z,9.57
2022-10-18T13:06:25.955Z,11.70
2022-10-18T13:09:21.727Z,14.70
2022-10-18T13:11:55.115Z,10.40
2022-10-18T13:14:44.089Z,14.02
2022-10-18T13:17:32.225Z,11.90
2022-10-18T13:20:25.637Z,11.18
2022-10-18T13:23:04.314Z,14.60
2022-10-18T13:25:45.021Z,15.60
2022-10-18T13:28:26.411Z,16.15
2022-10-18T13:33:42.643Z,13.38
2022-10-18T13:36:23.532Z,11.98
2022-10-18T13:39:06.416Z,13.65
2022-10-18T13:42:13.609Z,13.27
2022-10-18T13:44:43.678Z,13.40
2022-10-18T13:47:14.460Z,12.25
2022-10-18T13:50:16.519Z,13.18
2022-10-18T13:53:07.571Z,14.82
2022-10-18T13:55:55.783Z,17.90
2022-10-18T13:58:33.744Z,14.73
2022-10-18T14:01:18.056Z,10.65
2022-10-18T14:04:18.455Z,11.88
2022-10-18T14:06:48.492Z,13.25
2022-10-18T14:09:26.413Z,11.32
2022-10-18T14:12:17.058Z,19.10
2022-10-18T14:14:51.071Z,13.80
2022-10-18T14:17:29.850Z,11.52
2022-10-18T14:20:02.940Z,11.85
2022-10-18T14:22:38.177Z,13.70
2022-10-18T14:25:20.710Z,16.70
2022-10-18T14:27:50.959Z,15.90
2022-10-18T14:30:21.635Z,43.70
2022-10-18T14:32:52.802Z,27.35
2022-10-18T14:35:38.134Z,23.27
2022-10-18T14:38:13.871Z,19.92
2022-10-18T14:40:41.463Z,27.48
2022-10-18T14:43:12.990Z,21.38
2022-10-18T14:45:41.916Z,17.25
2022-10-18T14:48:16.596Z,24.38
2022-10-18T14:50:49.144Z,20.90
2022-10-18T14:53:20.238Z,23.85
2022-10-18T14:55:54.851Z,33.13
2022-10-18T14:58:22.851Z,82.38
2022-10-18T15:00:50.671Z,39.70
2022-10-18T15:03:20.212Z,32.28
2022-10-18T15:05:54.202Z,25.25
2022-10-18T15:08:23.583Z,24.40
2022-10-18T15:10:52.257Z,28.30
2022-10-18T15:13:20.970Z,24.45
2022-10-18T15:15:50.295Z,42.08
2022-10-18T15:18:22.807Z,56.53
2022-10-18T15:21:09.520Z,33.88
2022-10-18T15:23:37.118Z,31.50
2022-10-18T15:26:07.223Z,51.22
2022-10-18T15:28:38.014Z,32.63
2022-10-18T15:31:05.985Z,32.22
2022-10-18T15:33:35.624Z,30.55
2022-10-18T15:36:11.729Z,31.30
2022-10-18T15:38:42.699Z,20.83
2022-10-18T15:41:37.605Z,25.30
2022-10-18T15:44:18.443Z,24.20
2022-10-18T15:46:46.952Z,29.02
2022-10-18T15:49:49.973Z,28.45
2022-10-18T15:52:38.285Z,34.22
2022-10-18T15:55:46.391Z,32.58
2022-10-18T15:58:19.718Z,43.08
2022-10-18T16:00:49.045Z,39.10
2022-10-18T16:03:18.054Z,38.05
2022-10-18T16:05:47.286Z,34.13
2022-10-18T16:08:23.676Z,33.15
2022-10-18T16:10:52.174Z,33.40
2022-10-18T16:13:19.735Z,30.35
2022-10-18T16:15:48.467Z,26.33
2022-10-18T16:18:18.999Z,41.50
2022-10-18T16:20:48.538Z,30.17
2022-10-18T16:23:18.418Z,29.73
2022-10-18T16:25:46.878Z,29.55
2022-10-18T16:28:16.692Z,27.02
2022-10-18T16:30:52.985Z,28.30
2022-10-18T16:33:21.712Z,26.75
2022-10-18T16:35:53.361Z,25.00
2022-10-18T16:38:29.893Z,27.80
2022-10-18T16:41:01.468Z,29.65
2022-10-18T16:43:30.719Z,53.97
2022-10-18T16:45:58.481Z,101.38
2022-10-18T16:48:28.624Z,127.60
2022-10-18T16:50:58.339Z,147.52
2022-10-18T16:53:26.500Z,182.75
2022-10-18T16:55:56.430Z,181.70
2022-10-18T16:58:25.235Z,153.80
2022-10-18T17:00:53.219Z,144.00
2022-10-18T17:03:21.660Z,152.15
2022-10-18T17:05:49.802Z,126.43
2022-10-18T17:08:20.808Z,129.88
2022-10-18T17:10:50.562Z,125.63
2022-10-18T17:13:18.578Z,120.63
2022-10-18T17:15:47.047Z,109.47
2022-10-18T17:18:17.241Z,114.00
2022-10-18T17:20:45.740Z,84.80
2022-10-18T17:23:13.505Z,58.08
2022-10-18T17:25:57.380Z,63.13
2022-10-18T17:28:33.055Z,54.33
2022-10-18T17:31:01.086Z,45.15
2022-10-18T17:33:28.696Z,43.63
2022-10-18T17:35:57.051Z,49.08
2022-10-18T17:38:25.049Z,50.33
2022-10-18T17:40:55.056Z,51.85
2022-10-18T17:43:22.618Z,47.28
2022-10-18T17:45:55.084Z,52.97
2022-10-18T17:48:23.019Z,49.28
2022-10-18T17:50:50.664Z,53.17
2022-10-18T17:53:18.927Z,60.10
2022-10-18T17:55:46.469Z,45.53
2022-10-18T17:58:15.610Z,42.20
2022-10-18T18:00:43.237Z,38.28
2022-10-18T18:03:10.909Z,50.78
2022-10-18T18:05:38.755Z,42.33
2022-10-18T18:08:06.605Z,46.67
2022-10-18T18:10:35.010Z,46.05
2022-10-18T18:13:02.790Z,43.15
2022-10-18T18:15:34.211Z,36.15
2022-10-18T18:18:02.031Z,43.97
2022-10-18T18:20:30.814Z,46.55
2022-10-18T18:23:00.820Z,46.95
2022-10-18T18:25:28.396Z,53.45
2022-10-18T18:27:55.967Z,48.10
2022-10-18T18:30:23.702Z,42.20
2022-10-18T18:32:53.143Z,43.30
2022-10-18T18:35:20.697Z,35.88
2022-10-18T18:37:50.415Z,38.42
2022-10-18T18:40:18.187Z,33.80
2022-10-18T18:42:56.785Z,37.20
2022-10-18T18:45:33.796Z,39.40
2022-10-18T18:48:02.965Z,34.33
2022-10-18T18:50:30.624Z,36.72
2022-10-18T18:52:58.514Z,33.45
2022-10-18T18:55:26.513Z,35.70
2022-10-18T18:57:54.111Z,40.65
2022-10-18T19:00:21.992Z,46.38
2022-10-18T19:02:49.554Z,42.35
2022-10-18T19:05:18.598Z,41.28
2022-10-18T19:07:47.211Z,45.05
2022-10-18T19:10:14.910Z,48.78
2022-10-18T19:13:02.880Z,39.75
2022-10-18T19:15:30.848Z,39.78
2022-10-18T19:17:59.690Z,42.88
2022-10-18T19:20:30.700Z,52.00
2022-10-18T19:22:58.251Z,57.78
2022-10-18T19:25:27.046Z,53.25
2022-10-18T19:27:54.928Z,47.58
2022-10-18T19:30:22.603Z,59.08
2022-10-18T19:32:50.538Z,64.60
2022-10-18T19:35:18.153Z,63.92
2022-10-18T19:37:47.573Z,64.45
2022-10-18T19:40:15.509Z,65.05
2022-10-18T19:42:43.638Z,76.43
2022-10-18T19:45:11.211Z,69.45
2022-10-18T19:47:40.385Z,67.28
2022-10-18T19:50:08.522Z,71.63
2022-10-18T19:52:36.573Z,76.18
2022-10-18T19:55:06.809Z,94.03
2022-10-18T19:57:34.865Z,111.90
2022-10-18T20:00:03.570Z,83.50
2022-10-18T20:02:33.491Z,55.97
2022-10-18T20:05:02.805Z,47.53
2022-10-18T20:07:30.736Z,44.83
2022-10-18T20:09:58.303Z,44.78
2022-10-18T20:12:27.524Z,50.13
2022-10-18T20:14:55.130Z,58.40
2022-10-18T20:17:25.346Z,64.35
2022-10-18T20:19:53.690Z,64.93
2022-10-18T20:22:21.629Z,63.70
2022-10-18T20:24:49.931Z,51.53
2022-10-18T20:27:17.574Z,61.00
2022-10-18T20:29:47.224Z,58.20
2022-10-18T20:32:15.388Z,61.58
2022-10-18T20:34:43.169Z,44.33
2022-10-18T20:37:10.717Z,47.72
2022-10-18T20:39:58.326Z,50.63
2022-10-18T20:42:27.306Z,50.67
2022-10-18T20:44:56.435Z,40.08
2022-10-18T20:47:24.250Z,36.30
2022-10-18T20:49:51.869Z,37.20
2022-10-18T20:52:19.577Z,39.90
2022-10-18T20:54:47.813Z,39.03
2022-10-18T20:57:15.352Z,46.05
2022-10-18T20:59:43.242Z,42.75
2022-10-18T21:02:13.168Z,44.10
2022-10-18T21:04:42.307Z,41.42
2022-10-18T21:07:10.785Z,40.97
2022-10-18T21:09:38.412Z,41.00
2022-10-18T21:12:06.098Z,36.97
2022-10-18T21:14:33.814Z,39.03
2022-10-18T21:17:01.629Z,35.30
2022-10-18T21:19:31.854Z,37.22
2022-10-18T21:22:01.163Z,37.20
2022-10-18T21:24:29.636Z,37.30
2022-10-18T21:26:58.001Z,36.72
2022-10-18T21:29:25.664Z,38.78
2022-10-18T21:31:55.237Z,39.58
2022-10-18T21:34:22.816Z,37.60
2022-10-18T21:36:51.928Z,42.13
2022-10-18T21:39:22.009Z,39.25
2022-10-18T21:41:50.057Z,41.15
2022-10-18T21:44:17.960Z,30.77
2022-10-18T21:46:45.723Z,34.97
2022-10-18T21:49:14.418Z,35.72
2022-10-18T21:51:42.732Z,34.63
2022-10-18T21:54:14.632Z,31.85
2022-10-18T21:56:42.629Z,33.78
2022-10-18T21:59:11.629Z,34.60
2022-10-18T22:01:40.993Z,37.33
2022-10-18T22:04:18.406Z,37.28
2022-10-18T22:06:46.357Z,28.85
2022-10-18T22:09:16.006Z,26.15
2022-10-18T22:11:46.479Z,26.52
2022-10-18T22:14:14.388Z,25.37
2022-10-18T22:16:41.981Z,24.35
2022-10-18T22:19:12.501Z,28.63
2022-10-18T22:21:40.076Z,29.92
2022-10-18T22:24:09.235Z,31.27
2022-10-18T22:26:42.120Z,34.38
2022-10-18T22:29:13.112Z,32.83
2022-10-18T22:31:44.887Z,24.65
2022-10-18T22:34:14.682Z,36.70
2022-10-18T22:36:43.305Z,41.13
2022-10-18T22:39:12.102Z,33.58
2022-10-18T22:44:13.407Z,40.63
2022-10-18T22:46:41.638Z,42.53
2022-10-18T22:49:09.513Z,45.33
2022-10-18T22:51:37.362Z,44.38
2022-10-18T22:54:05.600Z,41.10
2022-10-18T22:56:33.329Z,32.03
2022-10-18T22:59:02.626Z,32.90
2022-10-18T23:01:30.361Z,26.48
2022-10-18T23:03:59.555Z,27.30
2022-10-18T23:06:29.115Z,22.02
2022-10-18T23:08:58.186Z,25.10
2022-10-18T23:11:27.145Z,24.27
2022-10-18T23:13:55.460Z,23.02
2022-10-18T23:16:24.962Z,25.50
2022-10-18T23:18:55.152Z,24.45
2022-10-18T23:21:24.560Z,25.42
2022-10-18T23:23:53.080Z,23.75
2022-10-18T23:26:23.046Z,27.67
2022-10-18T23:28:52.457Z,24.33
2022-10-18T23:31:21.769Z,27.88
2022-10-18T23:33:53.399Z,25.08
2022-10-18T23:36:21.321Z,27.70
2022-10-18T23:38:49.449Z,27.38
2022-10-18T23:41:17.565Z,23.38
2022-10-18T23:43:47.206Z,25.45
2022-10-18T23:46:16.089Z,23.90
2022-10-18T23:48:44.139Z,45.00
2022-10-18T23:51:13.769Z,46.45
2022-10-18T23:53:41.757Z,34.50
2022-10-18T23:56:11.986Z,36.88
2022-10-18T23:58:40.784Z,30.52
